Time;durP1;ratioP1;P1;durP2;ratioP2;P2;SDS_P1;SDS_P2;PMS_P1;PMS_P2;Temp;Humidity;BMP_temperature;BMP_pressure;BME280_temperature;BME280_humidity;BME280_pressure;Samples;Min_cycle;Max_cycle;Signal;HPM_P1;HPM_P2
2022/04/26 03:37:41;;;;;;;13.45;7.47;;;7.40;99.90;;;;;;5029557;28;20040;-70
2022/04/26 03:40:07;;;;;;;18.30;8.50;;;7.40;99.90;;;;;;5026619;28;20355;-70
2022/04/26 03:42:34;;;;;;;17.25;7.68;;;7.40;99.90;;;;;;5043121;28;20033;-70
2022/04/26 03:45:00;;;;;;;14.88;7.93;;;7.30;99.90;;;;;;5044276;28;20235;-70
2022/04/26 03:47:25;;;;;;;16.05;7.88;;;7.30;99.90;;;;;;5042961;28;20063;-69
2022/04/26 03:49:51;;;;;;;20.30;8.13;;;7.30;99.90;;;;;;5042487;28;20029;-70
2022/04/26 03:52:17;;;;;;;19.23;7.93;;;7.30;99.90;;;;;;5025750;28;20024;-70
2022/04/26 03:54:42;;;;;;;18.65;8.60;;;7.30;99.90;;;;;;5042594;28;20029;-70
2022/04/26 03:57:08;;;;;;;20.23;8.65;;;7.30;99.90;;;;;;5024995;28;20017;-70
2022/04/26 03:59:34;;;;;;;20.30;9.35;;;7.30;99.90;;;;;;5022772;28;20399;-70
2022/04/26 04:01:59;;;;;;;19.50;8.98;;;7.10;99.90;;;;;;5024336;28;20037;-70
2022/04/26 04:04:25;;;;;;;14.85;8.25;;;7.10;99.90;;;;;;5022955;28;20076;-70
2022/04/26 04:06:52;;;;;;;19.27;8.65;;;7.10;99.90;;;;;;5022674;28;20026;-70
2022/04/26 04:09:17;;;;;;;17.50;8.25;;;7.20;99.90;;;;;;5022962;28;20013;-70
2022/04/26 04:11:43;;;;;;;22.15;8.45;;;7.20;99.90;;;;;;5006467;28;20048;-70
2022/04/26 04:14:08;;;;;;;19.35;8.95;;;7.20;99.90;;;;;;5006561;28;20114;-69
2022/04/26 04:16:34;;;;;;;20.77;8.80;;;7.10;99.90;;;;;;5023512;28;20212;-71
2022/04/26 04:21:47;;;;;;;23.58;9.48;;;7.10;99.90;;;;;;5008847;28;20046;-69
2022/04/26 04:24:13;;;;;;;16.98;8.38;;;7.10;99.90;;;;;;5006511;28;20074;-69
2022/04/26 04:26:40;;;;;;;17.02;8.80;;;7.10;99.90;;;;;;5021210;28;20034;-70
2022/04/26 04:29:05;;;;;;;20.60;8.50;;;7.10;99.90;;;;;;5022738;28;20208;-72
2022/04/26 04:31:32;;;;;;;17.40;8.13;;;7.10;99.90;;;;;;5022575;28;20026;-71
2022/04/26 04:33:59;;;;;;;25.65;8.85;;;7.10;99.90;;;;;;5021891;28;20037;-71
2022/04/26 04:36:25;;;;;;;26.30;9.32;;;7.10;99.90;;;;;;5022186;28;20088;-71
2022/04/26 04:38:51;;;;;;;16.83;8.27;;;7.20;99.90;;;;;;5023874;28;20244;-70
2022/04/26 04:41:17;;;;;;;19.33;8.40;;;7.30;99.90;;;;;;5022308;28;20033;-71
2022/04/26 04:43:43;;;;;;;18.38;8.88;;;7.40;99.90;;;;;;5023443;28;20216;-73
2022/04/26 04:46:08;;;;;;;21.83;8.80;;;7.40;99.90;;;;;;5010322;28;20021;-71
2022/04/26 04:48:34;;;;;;;20.65;8.48;;;7.60;99.90;;;;;;5009157;28;20049;-71
2022/04/26 04:51:00;;;;;;;20.75;9.43;;;7.50;99.90;;;;;;5025729;28;20087;-71
2022/04/26 04:53:28;;;;;;;21.80;8.88;;;7.50;99.90;;;;;;5041458;28;20362;-71
2022/04/26 04:55:54;;;;;;;29.05;11.45;;;7.50;99.90;;;;;;5043283;28;20030;-71
2022/04/26 04:58:20;;;;;;;22.95;11.20;;;7.40;99.90;;;;;;5041614;28;20251;-72
2022/04/26 05:00:45;;;;;;;23.75;11.65;;;7.30;99.90;;;;;;5026222;28;20045;-70
2022/04/26 05:03:11;;;;;;;29.45;12.30;;;7.30;99.90;;;;;;5047472;28;20167;-70
2022/04/26 05:05:37;;;;;;;25.85;12.20;;;7.20;99.90;;;;;;5029720;28;20273;-69
2022/04/26 05:08:03;;;;;;;24.65;12.68;;;7.20;99.90;;;;;;5047098;28;20021;-72
2022/04/26 05:10:32;;;;;;;28.63;12.77;;;7.10;99.90;;;;;;5046664;28;20301;-70
2022/04/26 05:12:58;;;;;;;28.92;12.73;;;7.10;99.90;;;;;;5045250;28;20312;-69
2022/04/26 05:15:25;;;;;;;34.83;12.80;;;7.10;99.90;;;;;;5045655;28;20026;-70
2022/04/26 05:17:52;;;;;;;30.17;12.77;;;7.10;99.90;;;;;;5045618;28;20013;-70
2022/04/26 05:20:18;;;;;;;30.40;12.65;;;7.10;99.90;;;;;;5044730;28;20052;-69
2022/04/26 05:25:32;;;;;;;32.83;12.65;;;7.30;99.90;;;;;;5031521;28;20014;-72
2022/04/26 05:27:57;;;;;;;26.85;12.18;;;7.30;99.90;;;;;;5028285;28;20022;-72
2022/04/26 05:30:23;;;;;;;29.63;12.85;;;7.20;99.90;;;;;;5044853;28;20033;-71
2022/04/26 05:32:49;;;;;;;24.75;12.70;;;7.10;99.90;;;;;;5043142;28;20025;-71
2022/04/26 05:35:14;;;;;;;31.98;14.05;;;7.20;99.90;;;;;;5025069;28;20261;-71
2022/04/26 05:37:40;;;;;;;23.33;12.40;;;7.30;99.90;;;;;;5025047;28;20022;-70
2022/04/26 05:40:06;;;;;;;25.13;12.82;;;7.30;99.90;;;;;;5024773;28;20132;-70
2022/04/26 05:42:36;;;;;;;27.08;13.68;;;7.20;99.90;;;;;;5025307;28;20022;-70
2022/04/26 05:45:01;;;;;;;33.15;13.70;;;7.20;99.90;;;;;;5007630;28;20347;-71
2022/04/26 05:47:27;;;;;;;29.45;13.68;;;7.10;99.90;;;;;;5040367;28;20120;-72
2022/04/26 05:49:53;;;;;;;32.70;13.70;;;7.10;99.90;;;;;;5011918;28;20025;-71
2022/04/26 05:52:18;;;;;;;26.23;12.95;;;7.10;99.90;;;;;;5045069;28;20064;-70
2022/04/26 05:54:44;;;;;;;24.25;13.02;;;7.10;99.90;;;;;;5044473;28;20021;-72
2022/04/26 05:57:10;;;;;;;30.02;14.23;;;7.10;99.90;;;;;;5028754;28;20251;-72
2022/04/26 05:59:35;;;;;;;24.25;12.98;;;7.20;99.90;;;;;;5045798;28;20057;-72
2022/04/26 06:02:01;;;;;;;26.73;13.20;;;7.30;99.90;;;;;;5028607;28;20026;-72
2022/04/26 06:04:27;;;;;;;21.13;12.18;;;7.40;99.90;;;;;;5044870;28;20052;-71
2022/04/26 06:06:53;;;;;;;22.73;11.75;;;7.50;99.90;;;;;;5044773;28;20048;-70
2022/04/26 06:09:19;;;;;;;24.23;11.88;;;7.50;99.90;;;;;;5045965;28;20017;-71
2022/04/26 06:11:46;;;;;;;27.95;11.25;;;7.60;99.90;;;;;;5028196;28;20308;-71
2022/04/26 06:14:12;;;;;;;25.48;11.38;;;7.60;99.90;;;;;;5027933;28;20297;-70
2022/04/26 06:16:38;;;;;;;23.48;11.48;;;7.70;99.90;;;;;;5045828;28;20021;-72
2022/04/26 06:19:04;;;;;;;22.13;11.93;;;7.60;99.90;;;;;;5044646;28;20253;-72
2022/04/26 06:21:29;;;;;;;25.60;11.52;;;7.70;99.90;;;;;;5045334;28;20213;-72
2022/04/26 06:23:55;;;;;;;22.05;10.70;;;7.70;99.90;;;;;;5027554;28;20292;-73
2022/04/26 06:26:20;;;;;;;27.02;11.48;;;7.70;99.90;;;;;;5027952;28;20074;-71
2022/04/26 06:28:46;;;;;;;30.00;11.90;;;7.70;99.90;;;;;;5043543;28;20025;-71
2022/04/26 06:31:12;;;;;;;25.80;12.02;;;7.80;99.90;;;;;;5045613;28;20165;-72
2022/04/26 06:33:37;;;;;;;18.80;10.50;;;7.80;99.90;;;;;;5037258;28;20025;-71
2022/04/26 06:36:04;;;;;;;25.98;12.35;;;7.80;99.90;;;;;;5008397;28;20025;-70
2022/04/26 06:38:29;;;;;;;27.17;11.70;;;7.90;99.90;;;;;;5007668;28;20030;-72
2022/04/26 06:40:55;;;;;;;20.35;11.80;;;7.90;99.90;;;;;;5008072;28;20030;-72
2022/04/26 06:43:21;;;;;;;28.15;11.77;;;8.10;99.90;;;;;;5024240;28;20025;-73
2022/04/26 06:45:47;;;;;;;23.65;12.52;;;8.10;99.90;;;;;;5026127;28;20320;-71
2022/04/26 06:48:14;;;;;;;21.25;11.73;;;8.10;99.90;;;;;;5045368;28;20128;-72
2022/04/26 06:50:40;;;;;;;23.10;11.85;;;8.20;99.90;;;;;;5027736;28;20059;-71
2022/04/26 06:53:07;;;;;;;19.38;11.00;;;8.40;99.90;;;;;;5027197;28;20022;-72
2022/04/26 06:55:33;;;;;;;22.60;11.05;;;8.40;99.90;;;;;;5045107;28;20049;-71
2022/04/26 06:57:59;;;;;;;25.38;11.15;;;8.40;99.90;;;;;;5045243;28;20312;-71
2022/04/26 07:00:25;;;;;;;23.23;12.05;;;8.50;99.90;;;;;;5043480;28;20053;-70
2022/04/26 07:02:51;;;;;;;25.45;10.55;;;8.60;99.90;;;;;;5043805;28;20061;-70
2022/04/26 07:05:17;;;;;;;30.60;10.68;;;8.60;99.70;;;;;;5044666;28;20029;-72
2022/04/26 07:07:43;;;;;;;26.05;11.35;;;8.70;99.70;;;;;;5043087;28;20025;-73
2022/04/26 07:10:10;;;;;;;25.15;10.50;;;8.80;99.50;;;;;;5043186;28;20089;-70
2022/04/26 07:12:36;;;;;;;21.95;10.93;;;8.80;99.10;;;;;;5043323;28;20025;-70
2022/04/26 07:15:03;;;;;;;17.85;10.23;;;8.80;99.20;;;;;;5043566;28;20228;-71
2022/04/26 07:17:29;;;;;;;27.48;10.02;;;8.70;98.90;;;;;;5044314;28;20024;-73
2022/04/26 07:19:57;;;;;;;17.42;9.07;;;8.80;98.80;;;;;;5048747;28;20041;-73
2022/04/26 07:22:23;;;;;;;15.30;8.77;;;8.90;98.90;;;;;;5045995;28;20098;-71
2022/04/26 07:24:48;;;;;;;19.52;9.50;;;8.90;98.10;;;;;;5061486;28;20025;-72
2022/04/26 07:27:16;;;;;;;15.52;8.82;;;8.90;98.30;;;;;;5046295;28;20028;-72
2022/04/26 07:29:43;;;;;;;18.55;8.77;;;9.00;98.40;;;;;;5061899;28;20021;-71
2022/04/26 07:32:10;;;;;;;18.33;9.20;;;9.10;98.20;;;;;;5062954;28;20032;-72
2022/04/26 07:34:36;;;;;;;19.45;8.05;;;9.10;97.60;;;;;;5047596;28;20262;-73
2022/04/26 07:37:02;;;;;;;19.63;8.52;;;9.10;97.20;;;;;;5043381;28;20021;-70
2022/04/26 07:39:30;;;;;;;20.45;8.27;;;9.10;97.20;;;;;;5026377;28;20017;-71
2022/04/26 07:41:56;;;;;;;18.75;8.80;;;9.00;97.60;;;;;;5043812;28;20024;-71
2022/04/26 07:44:22;;;;;;;16.92;8.35;;;8.90;97.60;;;;;;5043185;28;20212;-71
2022/04/26 07:46:57;;;;;;;24.15;9.18;;;8.90;98.00;;;;;;5153855;27;20385;-72
2022/04/26 07:49:23;;;;;;;15.95;8.40;;;9.00;97.90;;;;;;5100867;28;20032;-73
2022/04/26 07:51:51;;;;;;;15.48;7.68;;;9.00;97.80;;;;;;5099663;28;20343;-74
2022/04/26 07:54:17;;;;;;;16.23;7.68;;;9.10;97.60;;;;;;5107638;28;20350;-72
2022/04/26 07:56:44;;;;;;;12.27;6.05;;;9.10;97.40;;;;;;5120134;28;20065;-70
2022/04/26 07:59:10;;;;;;;16.65;6.53;;;9.30;96.40;;;;;;5084610;28;20040;-69
2022/04/26 08:01:36;;;;;;;14.07;6.05;;;9.50;95.40;;;;;;5099249;28;20066;-71
2022/04/26 08:04:02;;;;;;;13.15;6.45;;;9.50;94.60;;;;;;5082866;28;20047;-73
2022/04/26 08:06:28;;;;;;;12.43;5.97;;;9.70;94.80;;;;;;5100454;28;20051;-73
2022/04/26 08:08:54;;;;;;;11.27;5.75;;;9.70;94.80;;;;;;5082537;28;20055;-72
2022/04/26 08:11:22;;;;;;;12.57;6.38;;;9.80;94.30;;;;;;5099122;28;20031;-71
2022/04/26 08:13:48;;;;;;;30.35;8.35;;;10.00;93.80;;;;;;5098645;28;20020;-72
2022/04/26 08:16:14;;;;;;;19.40;6.88;;;10.10;94.30;;;;;;5100394;28;20107;-69
2022/04/26 08:18:41;;;;;;;13.38;7.10;;;10.10;94.20;;;;;;5099322;28;20106;-70
2022/04/26 08:21:07;;;;;;;14.75;7.07;;;10.10;93.90;;;;;;5116146;28;20099;-73
2022/04/26 08:27:22;;;;;;;11.88;6.50;;;10.10;94.00;;;;;;5120029;28;20023;-71
2022/04/26 08:29:06;;;;;;;15.88;6.63;;;10.10;93.40;;;;;;5083459;28;20054;-70
2022/04/26 08:31:32;;;;;;;11.57;5.75;;;10.10;93.10;;;;;;5098543;28;20024;-71
2022/04/26 08:33:58;;;;;;;14.20;5.80;;;10.20;93.00;;;;;;5081614;28;20215;-70
2022/04/26 08:36:24;;;;;;;13.52;5.80;;;10.40;92.60;;;;;;5097945;28;20024;-73
2022/04/26 08:38:49;;;;;;;13.65;5.78;;;10.50;92.50;;;;;;5081655;28;20016;-71
2022/04/26 08:41:15;;;;;;;10.77;5.15;;;10.50;92.40;;;;;;5099596;28;20035;-75
2022/04/26 08:43:41;;;;;;;9.90;5.30;;;10.60;92.50;;;;;;5081805;28;20031;-73
2022/04/26 08:46:07;;;;;;;12.75;5.63;;;10.60;92.20;;;;;;5081213;28;20055;-70
2022/04/26 08:51:20;;;;;;;10.80;5.45;;;10.80;91.80;;;;;;5084482;28;20012;-70
2022/04/26 08:53:46;;;;;;;11.52;5.60;;;10.80;91.30;;;;;;5102077;28;20012;-71
2022/04/26 08:56:12;;;;;;;12.02;5.07;;;10.90;92.00;;;;;;5117452;28;20299;-71
2022/04/26 08:58:39;;;;;;;9.32;5.43;;;10.90;91.50;;;;;;5090907;28;20062;-71
2022/04/26 09:01:16;;;;;;;12.20;5.07;;;10.90;91.10;;;;;;5084659;28;20392;-70
2022/04/26 09:03:54;;;;;;;10.10;4.90;;;10.90;91.10;;;;;;5068587;28;20095;-71
2022/04/26 09:06:23;;;;;;;14.10;5.25;;;10.90;90.50;;;;;;5084785;28;20193;-72
2022/04/26 09:08:49;;;;;;;14.82;4.93;;;10.90;90.20;;;;;;5083619;28;20021;-73
2022/04/26 09:11:27;;;;;;;15.43;5.15;;;10.80;90.60;;;;;;5083269;28;20326;-72
2022/04/26 09:13:54;;;;;;;14.57;5.65;;;11.00;90.80;;;;;;5073762;28;20024;-75
2022/04/26 09:16:21;;;;;;;13.23;4.43;;;11.10;90.70;;;;;;5067517;28;20024;-71
2022/04/26 09:18:53;;;;;;;15.85;4.40;;;11.10;90.30;;;;;;5084278;28;20066;-70
2022/04/26 09:21:20;;;;;;;7.60;3.88;;;11.30;89.30;;;;;;5084137;28;20359;-70
2022/04/26 09:23:47;;;;;;;9.80;3.83;;;11.40;89.20;;;;;;5084124;28;20231;-70
2022/04/26 09:26:15;;;;;;;8.35;3.53;;;11.50;88.60;;;;;;5085206;28;20304;-73
2022/04/26 09:28:45;;;;;;;9.75;3.58;;;11.70;88.60;;;;;;5067614;28;20023;-70
2022/04/26 09:31:28;;;;;;;7.22;3.60;;;11.90;87.60;;;;;;5082583;28;20310;-71
2022/04/26 09:33:57;;;;;;;8.13;3.80;;;12.00;86.30;;;;;;5067376;28;20024;-71
2022/04/26 09:36:28;;;;;;;7.10;3.47;;;12.00;85.50;;;;;;5083855;28;20020;-72
2022/04/26 09:38:57;;;;;;;5.75;3.50;;;12.00;86.90;;;;;;5087255;28;20024;-71
2022/04/26 09:41:25;;;;;;;5.93;3.17;;;12.00;84.70;;;;;;5086846;28;20035;-71
2022/04/26 09:44:01;;;;;;;6.03;2.92;;;12.10;84.60;;;;;;5077876;28;20215;-71
2022/04/26 09:46:54;;;;;;;7.10;3.05;;;12.30;81.50;;;;;;5083483;28;20056;-70
2022/04/26 09:49:22;;;;;;;6.28;2.92;;;12.30;81.10;;;;;;5083844;28;20029;-72
2022/04/26 09:51:54;;;;;;;11.90;3.83;;;12.30;81.20;;;;;;5083587;28;20070;-72
2022/04/26 09:54:21;;;;;;;17.98;3.20;;;12.20;81.40;;;;;;5067674;28;20027;-74
2022/04/26 09:56:47;;;;;;;7.82;3.03;;;12.40;81.40;;;;;;5083027;28;20062;-70
2022/04/26 09:59:19;;;;;;;8.52;3.42;;;12.50;79.50;;;;;;5082951;28;20087;-69
2022/04/26 10:01:47;;;;;;;4.63;2.70;;;12.50;80.00;;;;;;5084418;28;20386;-72
2022/04/26 10:04:20;;;;;;;23.40;3.40;;;12.60;79.30;;;;;;5083374;28;20046;-70
2022/04/26 10:06:49;;;;;;;6.90;2.67;;;12.80;78.20;;;;;;5084669;28;20035;-70
2022/04/26 10:09:16;;;;;;;4.68;2.55;;;12.90;77.60;;;;;;5082347;28;20032;-70
2022/04/26 10:11:42;;;;;;;5.45;2.40;;;13.00;76.30;;;;;;5083488;28;20066;-70
2022/04/26 10:14:10;;;;;;;5.32;2.53;;;12.90;77.30;;;;;;5083311;28;20095;-73
2022/04/26 10:16:37;;;;;;;8.95;3.03;;;13.00;78.90;;;;;;5066657;28;20139;-70
2022/04/26 10:19:07;;;;;;;6.05;2.47;;;13.10;78.60;;;;;;5084085;28;20023;-72
2022/04/26 10:21:46;;;;;;;4.32;2.55;;;13.10;77.20;;;;;;5082967;28;20070;-71
2022/04/26 10:24:14;;;;;;;6.82;2.70;;;13.10;77.10;;;;;;5083002;28;20020;-73
2022/04/26 10:26:41;;;;;;;6.13;2.53;;;13.20;76.00;;;;;;5082809;28;20035;-73
2022/04/26 10:29:17;;;;;;;4.80;2.45;;;13.40;75.80;;;;;;5065963;28;20055;-71
2022/04/26 10:31:46;;;;;;;3.47;2.50;;;13.60;75.30;;;;;;5081929;28;20358;-72
2022/04/26 10:34:28;;;;;;;6.07;2.75;;;13.70;75.00;;;;;;5082691;28;20012;-72
2022/04/26 10:37:16;;;;;;;4.88;3.00;;;13.70;74.50;;;;;;5066604;28;20096;-72
2022/04/26 10:39:45;;;;;;;4.32;2.60;;;13.80;74.50;;;;;;5082921;28;20067;-73
2022/04/26 10:42:31;;;;;;;4.38;2.60;;;13.90;74.70;;;;;;5066181;28;20090;-72
2022/04/26 10:45:05;;;;;;;9.98;3.10;;;13.90;74.20;;;;;;5048642;28;20044;-69
2022/04/26 10:47:31;;;;;;;5.45;2.30;;;14.00;74.90;;;;;;5063412;28;20327;-71
2022/04/26 10:49:58;;;;;;;5.45;2.80;;;14.00;74.60;;;;;;5066067;28;20020;-69
2022/04/26 10:52:40;;;;;;;3.55;2.33;;;14.20;73.40;;;;;;5065367;28;20024;-71
2022/04/26 10:55:08;;;;;;;;;;;14.40;72.80;;;;;;5083636;28;20054;-70
2022/04/26 10:57:39;;;;;;;9.70;2.65;;;14.40;73.30;;;;;;5082393;28;19900;-70
2022/04/26 11:00:12;;;;;;;6.40;2.72;;;14.40;73.20;;;;;;5063606;28;20304;-73
2022/04/26 11:02:40;;;;;;;3.85;2.80;;;14.30;73.00;;;;;;5081678;28;20091;-74
2022/04/26 11:05:09;;;;;;;7.95;3.10;;;14.30;72.50;;;;;;5082493;28;20040;-71
2022/04/26 11:07:35;;;;;;;5.93;3.10;;;14.30;73.50;;;;;;5082356;28;20035;-71
2022/04/26 11:10:01;;;;;;;4.57;2.45;;;14.40;73.20;;;;;;5082018;28;20100;-70
2022/04/26 11:12:30;;;;;;;6.93;2.63;;;14.50;72.50;;;;;;5065075;28;20032;-70
2022/04/26 11:14:59;;;;;;;3.85;2.97;;;14.50;72.70;;;;;;5082375;28;20028;-70
2022/04/26 11:17:25;;;;;;;3.22;2.30;;;14.40;72.80;;;;;;5065781;28;20373;-71
2022/04/26 11:19:53;;;;;;;2.55;2.35;;;14.30;71.70;;;;;;5081774;28;20268;-72
2022/04/26 11:22:20;;;;;;;3.65;2.17;;;14.40;71.50;;;;;;5078386;28;20296;-71
2022/04/26 11:30:46;;;;;;;8.57;2.63;;;14.60;71.30;;;;;;5048628;28;20303;-71
2022/04/26 11:33:15;;;;;;;4.63;1.90;;;14.70;69.20;;;;;;5064642;28;20024;-70
2022/04/26 11:35:42;;;;;;;2.85;2.20;;;14.90;69.30;;;;;;5081965;28;20186;-68
2022/04/26 11:38:14;;;;;;;5.22;1.98;;;15.00;68.10;;;;;;5080155;28;20017;-70
2022/04/26 11:41:01;;;;;;;5.45;1.80;;;15.00;68.80;;;;;;5081499;28;20057;-68
2022/04/26 11:43:31;;;;;;;6.65;2.08;;;15.10;67.90;;;;;;5067820;28;20028;-68
2022/04/26 11:45:58;;;;;;;2.67;1.92;;;15.10;67.10;;;;;;5049044;28;20085;-70
2022/04/26 11:48:26;;;;;;;2.85;1.88;;;15.10;66.80;;;;;;5082308;28;20039;-71
2022/04/26 11:50:53;;;;;;;3.28;1.95;;;15.00;67.30;;;;;;5081640;28;20017;-72
2022/04/26 11:53:26;;;;;;;2.13;1.77;;;14.90;67.50;;;;;;5082655;28;20088;-72
2022/04/26 11:55:55;;;;;;;2.58;1.73;;;14.90;67.40;;;;;;5081130;28;20024;-69
2022/04/26 11:58:35;;;;;;;6.00;1.70;;;15.10;66.80;;;;;;5082195;28;20023;-71
2022/04/26 12:01:15;;;;;;;3.13;1.73;;;15.30;67.20;;;;;;5082887;28;20084;-70
2022/04/26 12:03:52;;;;;;;5.57;2.13;;;15.50;65.90;;;;;;5064887;28;20028;-71
2022/04/26 12:06:35;;;;;;;3.88;1.88;;;15.60;65.80;;;;;;5082038;28;20039;-71
2022/04/26 12:09:04;;;;;;;9.50;1.88;;;15.70;64.60;;;;;;5064956;28;20242;-70
2022/04/26 12:11:38;;;;;;;1.98;1.58;;;15.60;64.10;;;;;;5082594;28;20284;-73
2022/04/26 12:14:07;;;;;;;2.15;1.95;;;15.40;63.40;;;;;;5081280;28;20031;-71
2022/04/26 12:16:44;;;;;;;2.67;1.75;;;15.30;64.40;;;;;;5064932;28;20021;-72
2022/04/26 12:19:10;;;;;;;1.85;1.73;;;15.40;65.30;;;;;;5065106;28;20028;-75
2022/04/26 12:21:59;;;;;;;2.55;1.90;;;15.40;65.20;;;;;;5081472;28;20028;-72
2022/04/26 12:24:29;;;;;;;7.55;1.80;;;15.60;63.80;;;;;;5068198;28;20048;-71
2022/04/26 12:26:57;;;;;;;5.88;2.10;;;15.70;63.90;;;;;;5064918;28;20374;-71
2022/04/26 12:29:26;;;;;;;3.72;1.90;;;15.80;65.20;;;;;;5080966;28;20055;-70
2022/04/26 12:31:53;;;;;;;2.85;1.80;;;16.00;63.50;;;;;;5081232;28;20020;-71
2022/04/26 12:34:22;;;;;;;10.50;2.33;;;16.10;63.30;;;;;;5085438;28;20035;-74
2022/04/26 12:37:09;;;;;;;2.33;2.03;;;16.30;63.40;;;;;;5065447;28;20237;-74
2022/04/26 12:40:00;;;;;;;2.58;2.13;;;16.30;63.50;;;;;;5066474;28;20025;-72
2022/04/26 12:42:34;;;;;;;6.22;2.17;;;16.40;64.10;;;;;;5068938;28;20223;-72
2022/04/26 12:45:04;;;;;;;16.52;2.45;;;16.50;64.40;;;;;;5064959;28;20060;-75
2022/04/26 12:50:29;;;;;;;2.38;1.95;;;16.70;62.60;;;;;;5085320;28;20016;-71
2022/04/26 12:52:59;;;;;;;3.20;2.15;;;16.90;62.00;;;;;;5084493;28;20016;-69
2022/04/26 12:55:44;;;;;;;2.97;2.42;;;17.20;62.50;;;;;;5084926;28;20023;-71
2022/04/26 12:58:12;;;;;;;4.80;2.88;;;17.20;61.90;;;;;;5067981;28;20020;-70
2022/04/26 13:00:50;;;;;;;4.70;2.35;;;16.90;62.60;;;;;;5085982;28;20024;-70
2022/04/26 13:03:17;;;;;;;8.52;2.70;;;16.60;63.90;;;;;;5068123;28;20091;-71
2022/04/26 13:05:46;;;;;;;5.43;2.00;;;16.50;65.60;;;;;;5084745;28;20028;-71
2022/04/26 13:08:14;;;;;;;17.48;3.00;;;16.50;63.30;;;;;;5084342;28;20032;-70
2022/04/26 13:10:41;;;;;;;3.75;2.08;;;16.70;64.80;;;;;;5068337;28;20027;-70
2022/04/26 13:13:08;;;;;;;2.40;2.08;;;17.00;61.60;;;;;;5086163;28;20036;-71
2022/04/26 13:15:35;;;;;;;4.15;2.00;;;16.90;62.10;;;;;;5067478;28;20016;-71
2022/04/26 13:18:04;;;;;;;3.45;2.15;;;16.80;63.10;;;;;;5068078;28;20028;-70
2022/04/26 13:20:34;;;;;;;3.60;2.20;;;16.80;63.40;;;;;;5084512;28;20062;-72
2022/04/26 13:23:00;;;;;;;4.85;1.92;;;16.90;62.60;;;;;;5084872;28;20020;-72
2022/04/26 13:25:26;;;;;;;4.90;2.05;;;17.20;61.80;;;;;;5067859;28;20095;-72
2022/04/26 13:27:53;;;;;;;3.33;2.20;;;17.40;62.30;;;;;;5084424;28;20024;-74
2022/04/26 13:30:19;;;;;;;5.00;2.15;;;17.30;61.70;;;;;;5067500;28;20027;-71
2022/04/26 13:32:45;;;;;;;5.47;1.90;;;17.00;61.90;;;;;;5083270;28;20020;-73
2022/04/26 13:35:11;;;;;;;6.80;2.10;;;16.70;62.50;;;;;;5067567;28;20226;-71
2022/04/26 13:37:38;;;;;;;4.93;2.08;;;16.50;62.90;;;;;;5085385;28;20059;-74
2022/04/26 13:40:05;;;;;;;2.20;1.70;;;16.20;62.70;;;;;;5083671;28;20024;-71
2022/04/26 13:42:31;;;;;;;4.22;2.20;;;16.20;63.20;;;;;;5067150;28;20091;-73
2022/04/26 13:44:58;;;;;;;6.57;2.35;;;16.30;63.20;;;;;;5084536;28;20114;-73
2022/04/26 13:47:25;;;;;;;5.20;2.42;;;16.50;63.00;;;;;;5067059;28;20033;-70
2022/04/26 13:49:52;;;;;;;3.20;1.88;;;16.50;62.90;;;;;;5084024;28;20070;-71
2022/04/26 13:52:20;;;;;;;7.95;2.38;;;16.60;62.30;;;;;;5084558;28;20021;-72
2022/04/26 13:54:46;;;;;;;3.72;2.17;;;16.60;62.30;;;;;;5083878;28;20020;-71
2022/04/26 13:57:12;;;;;;;4.75;2.03;;;16.60;62.70;;;;;;5067202;28;20020;-72
2022/04/26 13:59:38;;;;;;;3.03;2.13;;;16.80;63.10;;;;;;5084702;28;20124;-72
2022/04/26 14:02:06;;;;;;;5.18;1.70;;;17.10;63.20;;;;;;5083339;28;20127;-73
2022/04/26 14:04:33;;;;;;;4.70;1.80;;;17.10;61.70;;;;;;5090227;28;20027;-72
2022/04/26 14:06:59;;;;;;;2.63;1.58;;;17.00;60.00;;;;;;5091065;28;20040;-70
2022/04/26 14:09:26;;;;;;;2.25;1.40;;;16.70;59.60;;;;;;5098241;28;20031;-71
2022/04/26 14:11:55;;;;;;;1.60;1.50;;;16.80;59.70;;;;;;5104887;28;20362;-73
2022/04/26 14:22:41;;;;;;;3.25;1.65;;;17.70;58.60;;;;;;5070139;28;20024;-76
2022/04/26 14:25:08;;;;;;;3.60;1.40;;;17.70;56.20;;;;;;5083854;28;20038;-70
2022/04/26 14:27:36;;;;;;;3.60;1.30;;;17.60;57.00;;;;;;5083444;28;20021;-72
2022/04/26 14:30:07;;;;;;;2.33;1.95;;;17.50;57.50;;;;;;5066403;28;20143;-73
2022/04/26 14:32:34;;;;;;;3.97;1.95;;;17.30;57.90;;;;;;5082358;28;20111;-73
2022/04/26 14:35:00;;;;;;;1.83;1.73;;;17.30;59.10;;;;;;5080959;28;20036;-74
2022/04/26 14:37:26;;;;;;;2.45;1.65;;;17.10;59.30;;;;;;5065915;28;20312;-75
2022/04/26 14:39:52;;;;;;;1.55;1.45;;;16.90;59.70;;;;;;5082909;28;20154;-74
2022/04/26 14:42:18;;;;;;;3.28;1.40;;;17.10;59.70;;;;;;5082717;28;20021;-72
2022/04/26 14:44:45;;;;;;;2.92;1.40;;;17.60;59.80;;;;;;5081324;28;20054;-72
2022/04/26 14:47:12;;;;;;;2.33;1.50;;;17.70;57.50;;;;;;5081789;28;20062;-70
2022/04/26 14:49:38;;;;;;;2.70;1.40;;;17.90;56.30;;;;;;5082773;28;20248;-74
2022/04/26 14:52:04;;;;;;;2.30;1.50;;;17.70;56.20;;;;;;5081238;28;20070;-73
2022/04/26 14:54:30;;;;;;;2.65;1.52;;;17.70;54.50;;;;;;5082151;28;20016;-73
2022/04/26 14:56:56;;;;;;;3.15;1.38;;;17.70;56.20;;;;;;5065510;28;20380;-70
2022/04/26 14:59:23;;;;;;;2.17;1.27;;;17.80;55.70;;;;;;5065816;28;20048;-72
2022/04/26 15:01:49;;;;;;;8.50;1.70;;;18.00;56.20;;;;;;5066355;28;20091;-72
2022/04/26 15:04:17;;;;;;;6.35;1.95;;;18.20;55.90;;;;;;5065859;28;20028;-73
2022/04/26 15:06:43;;;;;;;3.00;1.50;;;18.00;56.30;;;;;;5082590;28;20027;-72
2022/04/26 15:17:26;;;;;;;2.15;1.35;;;17.30;58.70;;;;;;5068706;28;20100;-76
2022/04/26 15:19:52;;;;;;;2.75;1.70;;;17.50;58.40;;;;;;5065499;28;20028;-74
2022/04/26 15:22:19;;;;;;;4.07;1.70;;;17.60;58.70;;;;;;5083639;28;20046;-73
2022/04/26 15:24:46;;;;;;;2.45;1.70;;;17.50;58.30;;;;;;5083555;28;20028;-75
2022/04/26 15:27:14;;;;;;;3.20;1.92;;;17.50;58.60;;;;;;5065606;28;20027;-72
2022/04/26 15:29:39;;;;;;;3.53;1.95;;;17.30;58.90;;;;;;5082717;28;20009;-72
2022/04/26 15:32:06;;;;;;;2.38;1.52;;;17.20;59.80;;;;;;5083691;28;20058;-72
2022/04/26 15:34:31;;;;;;;16.27;2.90;;;17.30;58.80;;;;;;5080780;28;20360;-72
2022/04/26 15:36:57;;;;;;;17.15;2.35;;;17.40;59.10;;;;;;5065518;28;20072;-70
2022/04/26 15:39:23;;;;;;;3.17;2.03;;;17.50;59.20;;;;;;5082518;28;20039;-74
2022/04/26 15:41:48;;;;;;;3.15;2.28;;;17.50;59.90;;;;;;5065616;28;20029;-73
2022/04/26 15:44:16;;;;;;;3.92;1.80;;;17.60;59.50;;;;;;5082049;28;20051;-73
2022/04/26 15:46:42;;;;;;;3.97;2.22;;;17.40;59.50;;;;;;5081576;28;20048;-70
2022/04/26 15:49:08;;;;;;;10.95;2.78;;;17.30;60.50;;;;;;5083401;28;20036;-72
2022/04/26 15:51:35;;;;;;;4.25;2.13;;;17.50;60.40;;;;;;5065628;28;20024;-70
2022/04/26 15:54:02;;;;;;;7.55;2.00;;;17.70;60.00;;;;;;5081359;28;20319;-72
2022/04/26 15:56:28;;;;;;;3.85;1.70;;;17.80;59.50;;;;;;5065670;28;20017;-73
2022/04/26 15:58:54;;;;;;;7.38;2.20;;;17.90;59.20;;;;;;5081833;28;20254;-71
2022/04/26 16:01:20;;;;;;;4.80;2.08;;;17.60;59.30;;;;;;5083801;28;20021;-69
2022/04/26 16:03:45;;;;;;;4.70;2.08;;;17.50;59.40;;;;;;5083730;28;20050;-73
2022/04/26 16:06:11;;;;;;;2.85;1.92;;;17.50;59.00;;;;;;5083659;28;20295;-72
2022/04/26 16:08:37;;;;;;;4.80;1.77;;;17.70;58.90;;;;;;5086248;28;20040;-70
2022/04/26 16:22:06;;;;;;;4.13;2.30;;;17.90;58.50;;;;;;5091982;28;20054;-71
2022/04/26 16:24:38;;;;;;;3.38;1.90;;;18.30;57.70;;;;;;5106356;28;20047;-73
2022/04/26 16:27:05;;;;;;;4.93;1.90;;;18.40;57.10;;;;;;5105782;28;20028;-72
2022/04/26 16:29:31;;;;;;;3.72;1.77;;;18.40;57.20;;;;;;5106797;28;20023;-73
2022/04/26 16:31:56;;;;;;;5.32;2.30;;;18.40;56.70;;;;;;5098129;28;20031;-71
2022/04/26 16:34:22;;;;;;;4.65;2.25;;;18.10;57.10;;;;;;5086227;28;20050;-73
2022/04/26 16:36:48;;;;;;;3.80;2.20;;;18.00;57.90;;;;;;5067856;28;20020;-70
2022/04/26 16:39:13;;;;;;;2.33;1.90;;;17.90;58.20;;;;;;5086702;28;20357;-71
2022/04/26 16:41:39;;;;;;;4.88;1.98;;;17.90;58.30;;;;;;5085920;28;20016;-74
2022/04/26 16:44:05;;;;;;;4.72;2.13;;;17.80;58.10;;;;;;5086857;28;20122;-73
2022/04/26 16:46:32;;;;;;;2.17;1.90;;;17.50;58.40;;;;;;5084832;28;20047;-71
2022/04/26 16:49:01;;;;;;;3.40;2.00;;;17.20;58.90;;;;;;5085144;28;20035;-72
2022/04/26 16:51:29;;;;;;;2.65;2.15;;;17.00;58.90;;;;;;5068719;28;20216;-71
2022/04/26 16:53:55;;;;;;;2.50;2.20;;;16.70;59.60;;;;;;5086425;28;20021;-73
2022/04/26 16:56:21;;;;;;;6.63;2.38;;;16.50;60.20;;;;;;5086543;28;20028;-73
2022/04/26 16:58:46;;;;;;;5.25;2.17;;;16.50;60.80;;;;;;5086254;28;20097;-74
2022/04/26 17:01:12;;;;;;;4.75;2.03;;;16.50;60.30;;;;;;5085325;28;20196;-71
2022/04/26 17:03:38;;;;;;;6.20;2.40;;;16.50;60.50;;;;;;5068680;28;20024;-73
2022/04/26 17:06:04;;;;;;;5.40;1.85;;;16.50;61.00;;;;;;5084669;28;20046;-71
2022/04/26 17:08:30;;;;;;;5.07;2.03;;;16.40;61.00;;;;;;5085227;28;20200;-72
2022/04/26 17:11:41;;;;;;;3.35;2.00;;;16.40;61.60;;;;;;5085901;28;20016;-72